sensor_id;sensor_type;location;lat;lon;timestamp;pressure;altitude;pressure_sealevel;temperature;humidity
22605;BME280;11469;49.024;8.246;2023-02-28T00:00:08;101284.69;;;0.02;68.74
22605;BME280;11469;49.024;8.246;2023-02-28T00:02:39;101276.41;;;0.02;68.68
22605;BME280;11469;49.024;8.246;2023-02-28T00:05:06;101275.03;;;-0.06;69.07
22605;BME280;11469;49.024;8.246;2023-02-28T00:07:32;101284.66;;;-0.09;69.64
22605;BME280;11469;49.024;8.246;2023-02-28T00:09:57;101279.16;;;-0.09;69.46
22605;BME280;11469;49.024;8.246;2023-02-28T00:12:23;101278.31;;;-0.09;69.06
22605;BME280;11469;49.024;8.246;2023-02-28T00:14:49;101272.25;;;-0.11;69.25
22605;BME280;11469;49.024;8.246;2023-02-28T00:17:15;101279.13;;;-0.14;69.43
22605;BME280;11469;49.024;8.246;2023-02-28T00:19:43;101281.88;;;-0.14;69.35
22605;BME280;11469;49.024;8.246;2023-02-28T00:22:08;101285.22;;;-0.12;69.42
22605;BME280;11469;49.024;8.246;2023-02-28T00:24:34;101274.16;;;-0.17;69.47
22605;BME280;11469;49.024;8.246;2023-02-28T00:26:59;101278.56;;;-0.16;69.31
22605;BME280;11469;49.024;8.246;2023-02-28T00:29:24;101272.78;;;-0.19;69.59
22605;BME280;11469;49.024;8.246;2023-02-28T00:31:50;101268.34;;;-0.20;69.69
22605;BME280;11469;49.024;8.246;2023-02-28T00:34:15;101289.56;;;-0.21;69.72
22605;BME280;11469;49.024;8.246;2023-02-28T00:36:40;101289.56;;;-0.21;69.78
22605;BME280;11469;49.024;8.246;2023-02-28T00:39:10;101290.94;;;-0.23;69.70
22605;BME280;11469;49.024;8.246;2023-02-28T00:41:36;101275.75;;;-0.26;69.84
22605;BME280;11469;49.024;8.246;2023-02-28T00:44:01;101294.22;;;-0.26;70.04
22605;BME280;11469;49.024;8.246;2023-02-28T00:46:26;101287.06;;;-0.27;70.02
22605;BME280;11469;49.024;8.246;2023-02-28T00:48:52;101280.44;;;-0.26;69.92
22605;BME280;11469;49.024;8.246;2023-02-28T00:51:17;101269.44;;;-0.26;70.04
22605;BME280;11469;49.024;8.246;2023-02-28T00:53:43;101281.25;;;-0.31;70.38
22605;BME280;11469;49.024;8.246;2023-02-28T00:56:08;101275.44;;;-0.35;70.59
22605;BME280;11469;49.024;8.246;2023-02-28T00:58:33;101277.63;;;-0.37;70.61
22605;BME280;11469;49.024;8.246;2023-02-28T01:00:59;101280.97;;;-0.29;70.29
22605;BME280;11469;49.024;8.246;2023-02-28T01:03:24;101279.59;;;-0.32;70.59
22605;BME280;11469;49.024;8.246;2023-02-28T01:05:50;101280.41;;;-0.37;70.66
22605;BME280;11469;49.024;8.246;2023-02-28T01:08:15;101285.59;;;-0.40;70.60
22605;BME280;11469;49.024;8.246;2023-02-28T01:10:42;101281.72;;;-0.44;71.31
22605;BME280;11469;49.024;8.246;2023-02-28T01:13:07;101278.97;;;-0.44;71.00
22605;BME280;11469;49.024;8.246;2023-02-28T01:15:33;101284.50;;;-0.39;70.67
22605;BME280;11469;49.024;8.246;2023-02-28T01:17:58;101285.34;;;-0.39;71.14
22605;BME280;11469;49.024;8.246;2023-02-28T01:20:24;101287.56;;;-0.36;70.78
22605;BME280;11469;49.024;8.246;2023-02-28T01:22:49;101285.09;;;-0.32;70.74
22605;BME280;11469;49.024;8.246;2023-02-28T01:25:15;101285.38;;;-0.34;70.65
22605;BME280;11469;49.024;8.246;2023-02-28T01:27:41;101280.13;;;-0.35;70.95
22605;BME280;11469;49.024;8.246;2023-02-28T01:30:07;101287.56;;;-0.36;70.83
22605;BME280;11469;49.024;8.246;2023-02-28T01:32:33;101281.75;;;-0.39;70.39
22605;BME280;11469;49.024;8.246;2023-02-28T01:34:58;101279.84;;;-0.34;69.85
22605;BME280;11469;49.024;8.246;2023-02-28T01:37:23;101283.16;;;-0.37;69.95
22605;BME280;11469;49.024;8.246;2023-02-28T01:39:49;101282.84;;;-0.40;69.94
22605;BME280;11469;49.024;8.246;2023-02-28T01:42:14;101278.72;;;-0.43;70.07
22605;BME280;11469;49.024;8.246;2023-02-28T01:47:28;101278.44;;;-0.41;69.88
22605;BME280;11469;49.024;8.246;2023-02-28T01:49:54;101275.94;;;-0.43;69.96
22605;BME280;11469;49.024;8.246;2023-02-28T01:52:21;101278.16;;;-0.45;70.40
22605;BME280;11469;49.024;8.246;2023-02-28T01:54:51;101277.06;;;-0.49;70.61
22605;BME280;11469;49.024;8.246;2023-02-28T01:57:23;101265.19;;;-0.44;70.79
22605;BME280;11469;49.024;8.246;2023-02-28T01:59:57;101265.50;;;-0.41;70.93
22605;BME280;11469;49.024;8.246;2023-02-28T02:02:28;101270.72;;;-0.44;70.50
22605;BME280;11469;49.024;8.246;2023-02-28T02:04:57;101269.06;;;-0.45;70.28
22605;BME280;11469;49.024;8.246;2023-02-28T02:07:24;101275.38;;;-0.45;69.88
22605;BME280;11469;49.024;8.246;2023-02-28T02:09:59;101258.31;;;-0.47;69.86
22605;BME280;11469;49.024;8.246;2023-02-28T02:12:39;101261.63;;;-0.50;69.93
22605;BME280;11469;49.024;8.246;2023-02-28T02:15:33;101272.38;;;-0.48;69.92
22605;BME280;11469;49.024;8.246;2023-02-28T02:18:24;101260.75;;;-0.55;70.19
22605;BME280;11469;49.024;8.246;2023-02-28T02:23:57;101259.09;;;-0.56;70.94
22605;BME280;11469;49.024;8.246;2023-02-28T02:35:12;101262.38;;;-0.59;72.18
22605;BME280;11469;49.024;8.246;2023-02-28T02:38:00;101258.81;;;-0.60;72.12
22605;BME280;11469;49.024;8.246;2023-02-28T02:40:35;101262.34;;;-0.64;72.71
22605;BME280;11469;49.024;8.246;2023-02-28T02:43:18;101266.19;;;-0.65;72.68
22605;BME280;11469;49.024;8.246;2023-02-28T02:46:04;101261.53;;;-0.65;72.42
22605;BME280;11469;49.024;8.246;2023-02-28T02:48:34;101257.13;;;-0.66;72.71
22605;BME280;11469;49.024;8.246;2023-02-28T02:51:05;101262.88;;;-0.68;73.04
22605;BME280;11469;49.024;8.246;2023-02-28T02:53:42;101259.56;;;-0.70;73.10
22605;BME280;11469;49.024;8.246;2023-02-28T02:56:10;101258.19;;;-0.72;73.15
22605;BME280;11469;49.024;8.246;2023-02-28T02:58:40;101257.09;;;-0.71;73.28
22605;BME280;11469;49.024;8.246;2023-02-28T03:01:08;101266.97;;;-0.75;73.49
22605;BME280;11469;49.024;8.246;2023-02-28T03:03:36;101258.44;;;-0.74;73.26
22605;BME280;11469;49.024;8.246;2023-02-28T03:06:02;101260.06;;;-0.78;73.55
22605;BME280;11469;49.024;8.246;2023-02-28T03:08:34;101268.59;;;-0.79;73.64
22605;BME280;11469;49.024;8.246;2023-02-28T03:11:02;101268.03;;;-0.81;73.78
22605;BME280;11469;49.024;8.246;2023-02-28T03:16:32;101257.84;;;-0.81;73.96
22605;BME280;11469;49.024;8.246;2023-02-28T03:26:58;101258.59;;;-0.90;74.78
22605;BME280;11469;49.024;8.246;2023-02-28T03:29:43;101256.09;;;-0.92;74.79
22605;BME280;11469;49.024;8.246;2023-02-28T03:32:25;101258.09;;;-0.82;74.50
22605;BME280;11469;49.024;8.246;2023-02-28T03:35:02;101257.25;;;-0.88;74.73
22605;BME280;11469;49.024;8.246;2023-02-28T03:37:31;101249.50;;;-0.91;74.96
22605;BME280;11469;49.024;8.246;2023-02-28T03:40:14;101254.19;;;-0.91;75.21
22605;BME280;11469;49.024;8.246;2023-02-28T03:42:45;101254.44;;;-0.93;74.89
22605;BME280;11469;49.024;8.246;2023-02-28T03:45:16;101252.78;;;-0.99;75.02
22605;BME280;11469;49.024;8.246;2023-02-28T03:47:53;101254.19;;;-0.96;75.53
22605;BME280;11469;49.024;8.246;2023-02-28T03:52:51;101255.22;;;-1.03;75.65
22605;BME280;11469;49.024;8.246;2023-02-28T03:55:20;101252.56;;;-0.87;75.78
22605;BME280;11469;49.024;8.246;2023-02-28T03:58:08;101252.31;;;-0.86;75.48
22605;BME280;11469;49.024;8.246;2023-02-28T04:00:38;101247.31;;;-0.89;75.82
22605;BME280;11469;49.024;8.246;2023-02-28T04:03:05;101248.94;;;-0.93;75.46
22605;BME280;11469;49.024;8.246;2023-02-28T04:05:31;101253.06;;;-1.01;75.88
22605;BME280;11469;49.024;8.246;2023-02-28T04:08:05;101252.78;;;-0.94;76.05
22605;BME280;11469;49.024;8.246;2023-02-28T04:10:30;101250.31;;;-1.01;76.26
22605;BME280;11469;49.024;8.246;2023-02-28T04:12:56;101250.56;;;-1.02;76.33
22605;BME280;11469;49.024;8.246;2023-02-28T04:15:21;101256.31;;;-1.04;76.32
22605;BME280;11469;49.024;8.246;2023-02-28T04:17:48;101255.53;;;-0.99;76.46
22605;BME280;11469;49.024;8.246;2023-02-28T04:20:13;101253.06;;;-1.01;76.68
22605;BME280;11469;49.024;8.246;2023-02-28T04:22:38;101250.88;;;-0.98;76.37
22605;BME280;11469;49.024;8.246;2023-02-28T04:25:04;101256.63;;;-1.00;76.75
22605;BME280;11469;49.024;8.246;2023-02-28T04:27:30;101253.34;;;-0.92;76.46
22605;BME280;11469;49.024;8.246;2023-02-28T04:29:56;101251.97;;;-0.94;76.57
22605;BME280;11469;49.024;8.246;2023-02-28T04:32:21;101255.28;;;-0.92;76.72
22605;BME280;11469;49.024;8.246;2023-02-28T04:34:47;101257.47;;;-0.94;77.20
22605;BME280;11469;49.024;8.246;2023-02-28T04:37:12;101249.50;;;-0.96;76.77
22605;BME280;11469;49.024;8.246;2023-02-28T04:39:37;101250.34;;;-0.95;76.76
22605;BME280;11469;49.024;8.246;2023-02-28T04:42:03;101258.59;;;-0.90;76.65
22605;BME280;11469;49.024;8.246;2023-02-28T04:44:29;101250.88;;;-0.98;76.95
22605;BME280;11469;49.024;8.246;2023-02-28T04:46:54;101258.84;;;-0.97;77.05
22605;BME280;11469;49.024;8.246;2023-02-28T04:49:19;101256.38;;;-0.93;77.00
22605;BME280;11469;49.024;8.246;2023-02-28T04:51:45;101256.38;;;-0.98;77.46
22605;BME280;11469;49.024;8.246;2023-02-28T04:54:10;101260.50;;;-0.96;77.37
22605;BME280;11469;49.024;8.246;2023-02-28T04:56:36;101255.53;;;-0.94;77.10
22605;BME280;11469;49.024;8.246;2023-02-28T04:59:01;101259.94;;;-0.98;77.44
22605;BME280;11469;49.024;8.246;2023-02-28T05:01:33;101263.53;;;-0.92;77.37
22605;BME280;11469;49.024;8.246;2023-02-28T05:04:01;101246.75;;;-0.96;77.08
22605;BME280;11469;49.024;8.246;2023-02-28T05:06:29;101265.75;;;-0.89;77.11
22605;BME280;11469;49.024;8.246;2023-02-28T05:08:55;101260.53;;;-0.91;77.28
22605;BME280;11469;49.024;8.246;2023-02-28T05:11:26;101255.31;;;-0.87;76.92
22605;BME280;11469;49.024;8.246;2023-02-28T05:13:52;101257.50;;;-0.89;76.82
22605;BME280;11469;49.024;8.246;2023-02-28T05:16:19;101259.97;;;-0.93;76.82
22605;BME280;11469;49.024;8.246;2023-02-28T05:18:45;101271.78;;;-0.92;76.57
22605;BME280;11469;49.024;8.246;2023-02-28T05:21:27;101271.78;;;-0.92;76.54
22605;BME280;11469;49.024;8.246;2023-02-28T05:23:53;101268.50;;;-0.89;77.01
22605;BME280;11469;49.024;8.246;2023-02-28T05:26:19;101271.28;;;-0.89;77.25
22605;BME280;11469;49.024;8.246;2023-02-28T05:28:44;101279.22;;;-0.93;77.19
22605;BME280;11469;49.024;8.246;2023-02-28T05:31:13;101267.38;;;-0.93;76.72
22605;BME280;11469;49.024;8.246;2023-02-28T05:33:39;101275.38;;;-0.92;77.12
22605;BME280;11469;49.024;8.246;2023-02-28T05:36:05;101277.59;;;-0.89;76.85
22605;BME280;11469;49.024;8.246;2023-02-28T05:38:31;101270.69;;;-0.91;77.12
22605;BME280;11469;49.024;8.246;2023-02-28T05:40:56;101274.56;;;-0.92;77.29
22605;BME280;11469;49.024;8.246;2023-02-28T05:43:22;101269.31;;;-0.94;77.27
22605;BME280;11469;49.024;8.246;2023-02-28T05:45:48;101268.47;;;-0.99;77.46
22605;BME280;11469;49.024;8.246;2023-02-28T05:48:13;101297.38;;;-0.97;77.90
22605;BME280;11469;49.024;8.246;2023-02-28T05:50:38;101275.31;;;-1.02;77.86
22605;BME280;11469;49.024;8.246;2023-02-28T05:53:04;101273.44;;;-0.96;77.95
22605;BME280;11469;49.024;8.246;2023-02-28T05:55:29;101272.34;;;-0.95;77.91
22605;BME280;11469;49.024;8.246;2023-02-28T05:57:55;101275.63;;;-0.93;77.67
22605;BME280;11469;49.024;8.246;2023-02-28T06:00:21;101273.19;;;-0.95;77.83
22605;BME280;11469;49.024;8.246;2023-02-28T06:02:47;101270.69;;;-0.91;77.70
22605;BME280;11469;49.024;8.246;2023-02-28T06:05:15;101270.19;;;-0.88;78.16
22605;BME280;11469;49.024;8.246;2023-02-28T06:07:41;101274.59;;;-0.87;77.98
22605;BME280;11469;49.024;8.246;2023-02-28T06:10:06;101277.03;;;-0.91;78.03
22605;BME280;11469;49.024;8.246;2023-02-28T06:12:32;101262.44;;;-0.91;77.96
22605;BME280;11469;49.024;8.246;2023-02-28T06:14:57;101276.47;;;-0.93;77.64
22605;BME280;11469;49.024;8.246;2023-02-28T06:17:22;101269.59;;;-0.90;77.89
22605;BME280;11469;49.024;8.246;2023-02-28T06:19:48;101271.53;;;-0.91;78.22
22605;BME280;11469;49.024;8.246;2023-02-28T06:22:13;101289.97;;;-0.91;78.15
22605;BME280;11469;49.024;8.246;2023-02-28T06:24:39;101282.31;;;-0.84;77.75
22605;BME280;11469;49.024;8.246;2023-02-28T06:27:04;101284.53;;;-0.81;77.52
22605;BME280;11469;49.024;8.246;2023-02-28T06:29:34;101282.88;;;-0.82;77.66
22605;BME280;11469;49.024;8.246;2023-02-28T06:31:59;101277.38;;;-0.82;77.79
22605;BME280;11469;49.024;8.246;2023-02-28T06:34:25;101280.97;;;-0.82;77.56
22605;BME280;11469;49.024;8.246;2023-02-28T06:36:51;101291.19;;;-0.77;77.54
22605;BME280;11469;49.024;8.246;2023-02-28T06:39:16;101298.38;;;-0.71;77.34
22605;BME280;11469;49.024;8.246;2023-02-28T06:41:43;101296.97;;;-0.74;76.97
22605;BME280;11469;49.024;8.246;2023-02-28T06:44:19;101294.00;;;-0.67;77.07
22605;BME280;11469;49.024;8.246;2023-02-28T06:46:45;101299.25;;;-0.65;77.38
22605;BME280;11469;49.024;8.246;2023-02-28T06:49:11;101300.13;;;-0.60;76.87
22605;BME280;11469;49.024;8.246;2023-02-28T06:51:39;101299.88;;;-0.53;77.45
22605;BME280;11469;49.024;8.246;2023-02-28T06:54:05;101297.44;;;-0.50;76.64
22605;BME280;11469;49.024;8.246;2023-02-28T06:56:34;101307.03;;;-0.52;76.12
22605;BME280;11469;49.024;8.246;2023-02-28T06:59:00;101310.38;;;-0.50;76.27
22605;BME280;11469;49.024;8.246;2023-02-28T07:01:25;101312.81;;;-0.54;75.87
22605;BME280;11469;49.024;8.246;2023-02-28T07:03:53;101313.94;;;-0.50;76.11
22605;BME280;11469;49.024;8.246;2023-02-28T07:06:23;101316.13;;;-0.47;75.83
22605;BME280;11469;49.024;8.246;2023-02-28T07:08:49;101316.44;;;-0.48;75.78
22605;BME280;11469;49.024;8.246;2023-02-28T07:11:15;101314.50;;;-0.48;76.03
22605;BME280;11469;49.024;8.246;2023-02-28T07:13:40;101312.56;;;-0.52;75.89
22605;BME280;11469;49.024;8.246;2023-02-28T07:16:09;101322.47;;;-0.51;76.00
22605;BME280;11469;49.024;8.246;2023-02-28T07:18:35;101330.75;;;-0.46;76.31
22605;BME280;11469;49.024;8.246;2023-02-28T07:21:05;101323.34;;;-0.41;75.79
22605;BME280;11469;49.024;8.246;2023-02-28T07:23:31;101337.38;;;-0.42;75.70
22605;BME280;11469;49.024;8.246;2023-02-28T07:25:57;101330.47;;;-0.50;75.79
22605;BME280;11469;49.024;8.246;2023-02-28T07:28:22;101323.28;;;-0.56;75.88
22605;BME280;11469;49.024;8.246;2023-02-28T07:30:48;101343.06;;;-0.59;75.64
22605;BME280;11469;49.024;8.246;2023-02-28T07:33:14;101334.31;;;-0.51;75.85
22605;BME280;11469;49.024;8.246;2023-02-28T07:35:39;101330.75;;;-0.51;75.85
22605;BME280;11469;49.024;8.246;2023-02-28T07:38:05;101336.00;;;-0.45;75.57
22605;BME280;11469;49.024;8.246;2023-02-28T07:40:33;101331.31;;;-0.44;75.44
22605;BME280;11469;49.024;8.246;2023-02-28T07:43:02;101325.84;;;-0.39;75.72
22605;BME280;11469;49.024;8.246;2023-02-28T07:45:29;101341.00;;;-0.37;75.81
22605;BME280;11469;49.024;8.246;2023-02-28T07:47:55;101335.75;;;-0.38;75.50
22605;BME280;11469;49.024;8.246;2023-02-28T07:50:21;101333.84;;;-0.38;75.22
22605;BME280;11469;49.024;8.246;2023-02-28T07:52:46;101334.94;;;-0.39;75.45
22605;BME280;11469;49.024;8.246;2023-02-28T07:55:11;101336.06;;;-0.35;75.08
22605;BME280;11469;49.024;8.246;2023-02-28T07:57:38;101341.91;;;-0.26;74.87
22605;BME280;11469;49.024;8.246;2023-02-28T08:00:05;101349.13;;;-0.15;74.81
22605;BME280;11469;49.024;8.246;2023-02-28T08:02:31;101338.63;;;-0.18;74.61
22605;BME280;11469;49.024;8.246;2023-02-28T08:04:56;101341.66;;;-0.19;74.58
22605;BME280;11469;49.024;8.246;2023-02-28T08:07:22;101339.75;;;-0.14;74.65
22605;BME280;11469;49.024;8.246;2023-02-28T08:09:47;101343.66;;;-0.05;74.65
22605;BME280;11469;49.024;8.246;2023-02-28T08:12:13;101335.41;;;-0.05;74.59
22605;BME280;11469;49.024;8.246;2023-02-28T08:14:38;101340.91;;;0.00;74.45
22605;BME280;11469;49.024;8.246;2023-02-28T08:17:05;101346.72;;;-0.01;73.94
22605;BME280;11469;49.024;8.246;2023-02-28T08:19:31;101345.94;;;0.14;73.70
22605;BME280;11469;49.024;8.246;2023-02-28T08:21:57;101342.06;;;0.15;73.14
22605;BME280;11469;49.024;8.246;2023-02-28T08:24:22;101343.94;;;-0.06;73.31
22605;BME280;11469;49.024;8.246;2023-02-28T08:26:48;101351.13;;;0.00;73.28
22605;BME280;11469;49.024;8.246;2023-02-28T08:29:13;101348.66;;;0.04;73.21
22605;BME280;11469;49.024;8.246;2023-02-28T08:31:38;101342.28;;;0.03;73.35
22605;BME280;11469;49.024;8.246;2023-02-28T08:34:06;101361.94;;;0.17;73.28
22605;BME280;11469;49.024;8.246;2023-02-28T08:36:31;101341.25;;;0.14;72.71
22605;BME280;11469;49.024;8.246;2023-02-28T08:38:57;101359.53;;;0.30;72.95
22605;BME280;11469;49.024;8.246;2023-02-28T08:41:23;101358.16;;;0.38;72.38
22605;BME280;11469;49.024;8.246;2023-02-28T08:43:48;101362.28;;;0.30;71.84
22605;BME280;11469;49.024;8.246;2023-02-28T08:46:14;101363.88;;;0.21;72.44
22605;BME280;11469;49.024;8.246;2023-02-28T08:48:39;101359.81;;;0.34;72.51
22605;BME280;11469;49.024;8.246;2023-02-28T08:51:09;101358.41;;;0.31;72.52
22605;BME280;11469;49.024;8.246;2023-02-28T08:53:39;101363.44;;;0.45;72.27
22605;BME280;11469;49.024;8.246;2023-02-28T08:56:10;101356.28;;;0.59;71.51
22605;BME280;11469;49.024;8.246;2023-02-28T08:58:36;101360.16;;;0.68;71.33
22605;BME280;11469;49.024;8.246;2023-02-28T09:01:11;101358.78;;;0.65;71.45
22605;BME280;11469;49.024;8.246;2023-02-28T09:03:37;101349.94;;;0.63;71.02
22605;BME280;11469;49.024;8.246;2023-02-28T09:06:03;101348.59;;;0.71;70.83
22605;BME280;11469;49.024;8.246;2023-02-28T09:08:30;101351.66;;;0.90;68.89
22605;BME280;11469;49.024;8.246;2023-02-28T09:10:56;101354.06;;;0.61;69.58
22605;BME280;11469;49.024;8.246;2023-02-28T09:13:24;101350.28;;;0.87;69.30
22605;BME280;11469;49.024;8.246;2023-02-28T09:15:49;101355.50;;;0.84;68.44
22605;BME280;11469;49.024;8.246;2023-02-28T09:18:15;101356.34;;;0.89;69.01
22605;BME280;11469;49.024;8.246;2023-02-28T09:20:41;101361.59;;;1.01;69.65
22605;BME280;11469;49.024;8.246;2023-02-28T09:23:08;101357.47;;;1.24;69.17
22605;BME280;11469;49.024;8.246;2023-02-28T09:25:35;101358.84;;;1.11;67.42
22605;BME280;11469;49.024;8.246;2023-02-28T09:28:03;101354.41;;;1.10;68.45
22605;BME280;11469;49.024;8.246;2023-02-28T09:30:29;101353.56;;;0.99;67.21
22605;BME280;11469;49.024;8.246;2023-02-28T09:32:55;101350.53;;;1.06;67.34
22605;BME280;11469;49.024;8.246;2023-02-28T09:35:21;101353.88;;;1.13;67.72
22605;BME280;11469;49.024;8.246;2023-02-28T09:37:50;101345.03;;;1.11;67.49
22605;BME280;11469;49.024;8.246;2023-02-28T09:40:20;101352.75;;;1.19;67.72
22605;BME280;11469;49.024;8.246;2023-02-28T09:42:48;101351.66;;;1.30;67.02
22605;BME280;11469;49.024;8.246;2023-02-28T09:47:54;101342.25;;;1.42;66.66
22605;BME280;11469;49.024;8.246;2023-02-28T09:50:50;101341.66;;;1.65;66.02
22605;BME280;11469;49.024;8.246;2023-02-28T09:53:25;101346.91;;;1.56;65.19
22605;BME280;11469;49.024;8.246;2023-02-28T09:55:55;101353.47;;;1.91;64.52
22605;BME280;11469;49.024;8.246;2023-02-28T09:58:34;101353.66;;;2.15;64.41
22605;BME280;11469;49.024;8.246;2023-02-28T10:01:25;101345.41;;;2.05;64.10
22605;BME280;11469;49.024;8.246;2023-02-28T10:06:26;101347.41;;;1.89;63.15
22605;BME280;11469;49.024;8.246;2023-02-28T10:09:13;101350.13;;;1.99;63.08
22605;BME280;11469;49.024;8.246;2023-02-28T10:11:41;101356.28;;;1.81;62.07
22605;BME280;11469;49.024;8.246;2023-02-28T10:14:16;101368.69;;;1.88;62.86
22605;BME280;11469;49.024;8.246;2023-02-28T10:16:48;101351.31;;;1.78;63.16
22605;BME280;11469;49.024;8.246;2023-02-28T10:22:03;101366.13;;;2.12;63.26
22605;BME280;11469;49.024;8.246;2023-02-28T10:27:06;101372.53;;;1.92;63.21
22605;BME280;11469;49.024;8.246;2023-02-28T10:29:36;101367.81;;;2.03;62.79
22605;BME280;11469;49.024;8.246;2023-02-28T10:32:05;101363.91;;;2.14;62.31
22605;BME280;11469;49.024;8.246;2023-02-28T10:34:30;101363.34;;;2.17;62.36
22605;BME280;11469;49.024;8.246;2023-02-28T10:36:56;101365.22;;;2.32;62.64
22605;BME280;11469;49.024;8.246;2023-02-28T10:39:36;101365.13;;;2.47;61.80
22605;BME280;11469;49.024;8.246;2023-02-28T10:42:03;101359.84;;;2.56;62.17
22605;BME280;11469;49.024;8.246;2023-02-28T10:44:28;101356.97;;;2.17;62.02
22605;BME280;11469;49.024;8.246;2023-02-28T10:46:53;101362.25;;;2.13;62.50
22605;BME280;11469;49.024;8.246;2023-02-28T10:49:23;101361.09;;;2.24;62.04
22605;BME280;11469;49.024;8.246;2023-02-28T10:51:54;101359.50;;;2.08;62.75
22605;BME280;11469;49.024;8.246;2023-02-28T10:54:33;101363.22;;;2.38;62.01
22605;BME280;11469;49.024;8.246;2023-02-28T10:57:22;101362.06;;;2.49;61.79
22605;BME280;11469;49.024;8.246;2023-02-28T11:00:08;101360.03;;;2.70;60.73
22605;BME280;11469;49.024;8.246;2023-02-28T11:02:37;101371.50;;;2.92;59.67
22605;BME280;11469;49.024;8.246;2023-02-28T11:07:56;101359.19;;;2.74;59.91
22605;BME280;11469;49.024;8.246;2023-02-28T11:10:26;101353.88;;;2.83;59.52
22605;BME280;11469;49.024;8.246;2023-02-28T11:12:55;101355.41;;;2.55;60.73
22605;BME280;11469;49.024;8.246;2023-02-28T11:15:30;101354.88;;;2.53;60.73
22605;BME280;11469;49.024;8.246;2023-02-28T11:18:14;101349.31;;;2.58;61.16
22605;BME280;11469;49.024;8.246;2023-02-28T11:20:49;101347.88;;;2.65;60.81
22605;BME280;11469;49.024;8.246;2023-02-28T11:23:15;101344.31;;;2.60;60.85
22605;BME280;11469;49.024;8.246;2023-02-28T11:25:47;101341.22;;;2.66;61.82
22605;BME280;11469;49.024;8.246;2023-02-28T11:28:32;101336.09;;;2.84;60.55
22605;BME280;11469;49.024;8.246;2023-02-28T11:36:03;101335.59;;;3.16;59.22
22605;BME280;11469;49.024;8.246;2023-02-28T11:38:31;101335.22;;;3.56;58.86
22605;BME280;11469;49.024;8.246;2023-02-28T11:44:06;101333.31;;;4.05;57.08
22605;BME280;11469;49.024;8.246;2023-02-28T11:46:45;101328.13;;;3.74;56.12
22605;BME280;11469;49.024;8.246;2023-02-28T11:49:32;101324.97;;;4.05;56.92
22605;BME280;11469;49.024;8.246;2023-02-28T11:52:21;101325.94;;;4.19;56.23
22605;BME280;11469;49.024;8.246;2023-02-28T11:57:33;101331.41;;;4.00;55.55
22605;BME280;11469;49.024;8.246;2023-02-28T12:00:25;101314.66;;;4.10;56.53
22605;BME280;11469;49.024;8.246;2023-02-28T12:05:45;101324.56;;;3.40;56.89
22605;BME280;11469;49.024;8.246;2023-02-28T12:10:44;101318.84;;;3.60;57.40
22605;BME280;11469;49.024;8.246;2023-02-28T12:13:26;101323.56;;;3.83;57.62
22605;BME280;11469;49.024;8.246;2023-02-28T12:16:27;101327.53;;;4.01;57.05
22605;BME280;11469;49.024;8.246;2023-02-28T12:24:53;101310.75;;;3.63;56.68
22605;BME280;11469;49.024;8.246;2023-02-28T12:27:23;101320.25;;;3.81;56.70
22605;BME280;11469;49.024;8.246;2023-02-28T12:30:03;101317.56;;;3.76;56.71
22605;BME280;11469;49.024;8.246;2023-02-28T12:32:39;101318.31;;;3.82;56.64
22605;BME280;11469;49.024;8.246;2023-02-28T12:35:13;101311.56;;;3.88;56.11
22605;BME280;11469;49.024;8.246;2023-02-28T12:37:47;101318.31;;;3.82;56.64
22605;BME280;11469;49.024;8.246;2023-02-28T12:40:19;101311.94;;;3.81;56.30
22605;BME280;11469;49.024;8.246;2023-02-28T12:42:49;101296.72;;;3.79;56.48
22605;BME280;11469;49.024;8.246;2023-02-28T12:45:27;101302.09;;;3.94;56.55
22605;BME280;11469;49.024;8.246;2023-02-28T12:47:59;101300.91;;;3.76;56.41
22605;BME280;11469;49.024;8.246;2023-02-28T12:50:27;101294.84;;;3.74;55.98
22605;BME280;11469;49.024;8.246;2023-02-28T13:04:39;101297.06;;;3.96;55.77
22605;BME280;11469;49.024;8.246;2023-02-28T13:07:36;101289.81;;;4.00;55.70
22605;BME280;11469;49.024;8.246;2023-02-28T13:10:07;101276.34;;;4.12;55.21
22605;BME280;11469;49.024;8.246;2023-02-28T13:12:33;101281.66;;;4.27;54.73
22605;BME280;11469;49.024;8.246;2023-02-28T13:15:16;101284.75;;;4.45;55.32
22605;BME280;11469;49.024;8.246;2023-02-28T13:17:44;101280.19;;;4.54;54.71
22605;BME280;11469;49.024;8.246;2023-02-28T13:20:21;101278.88;;;4.27;55.49
22605;BME280;11469;49.024;8.246;2023-02-28T13:22:50;101283.63;;;4.46;54.65
22605;BME280;11469;49.024;8.246;2023-02-28T13:27:51;101278.22;;;4.73;53.87
22605;BME280;11469;49.024;8.246;2023-02-28T13:33:34;101279.66;;;4.52;54.58
22605;BME280;11469;49.024;8.246;2023-02-28T13:38:46;101281.81;;;4.74;54.02
22605;BME280;11469;49.024;8.246;2023-02-28T13:44:03;101273.44;;;4.60;54.08
22605;BME280;11469;49.024;8.246;2023-02-28T13:46:29;101275.75;;;4.53;53.91
22605;BME280;11469;49.024;8.246;2023-02-28T13:48:55;101276.13;;;4.65;54.39
22605;BME280;11469;49.024;8.246;2023-02-28T13:51:40;101269.06;;;4.73;54.31
22605;BME280;11469;49.024;8.246;2023-02-28T14:00:15;101280.91;;;4.78;53.08
22605;BME280;11469;49.024;8.246;2023-02-28T14:05:20;101271.69;;;4.83;54.25
22605;BME280;11469;49.024;8.246;2023-02-28T14:07:59;101283.47;;;4.75;53.47
22605;BME280;11469;49.024;8.246;2023-02-28T14:10:31;101281.72;;;4.97;54.35
22605;BME280;11469;49.024;8.246;2023-02-28T14:16:02;101275.47;;;5.06;54.25
22605;BME280;11469;49.024;8.246;2023-02-28T14:18:32;101274.38;;;5.20;52.56
22605;BME280;11469;49.024;8.246;2023-02-28T14:21:09;101281.56;;;5.21;52.97
22605;BME280;11469;49.024;8.246;2023-02-28T14:23:50;101288.09;;;4.98;53.51
22605;BME280;11469;49.024;8.246;2023-02-28T14:29:17;101272.97;;;4.72;54.39
22605;BME280;11469;49.024;8.246;2023-02-28T14:37:13;101274.84;;;4.76;54.82
22605;BME280;11469;49.024;8.246;2023-02-28T14:39:42;101268.88;;;5.02;53.90
22605;BME280;11469;49.024;8.246;2023-02-28T14:42:28;101269.22;;;5.14;53.99
22605;BME280;11469;49.024;8.246;2023-02-28T14:44:54;101269.03;;;4.91;53.86
22605;BME280;11469;49.024;8.246;2023-02-28T14:47:28;101262.63;;;5.10;53.64
22605;BME280;11469;49.024;8.246;2023-02-28T14:49:56;101261.19;;;5.12;53.86
22605;BME280;11469;49.024;8.246;2023-02-28T14:52:27;101257.69;;;5.07;53.25